Time;durP1;ratioP1;P1;durP2;ratioP2;P2;SDS_P1;SDS_P2;PMS_P1;PMS_P2;Temp;Humidity;BMP_temperature;BMP_pressure;BME280_temperature;BME280_humidity;BME280_pressure;Samples;Min_cycle;Max_cycle;Signal;HPM_P1;HPM_P2
2022/03/21 00:00:33;;;;;;;25.40;17.60;;;3.40;99.90;;;;;;4951544;28;20066;-75
2022/03/21 00:03:00;;;;;;;22.80;15.77;;;3.40;99.90;;;;;;4967486;28;20050;-75
2022/03/21 00:05:28;;;;;;;27.23;14.97;;;3.40;99.90;;;;;;4952680;28;20121;-75
2022/03/21 00:07:53;;;;;;;24.07;16.13;;;3.40;99.90;;;;;;4948227;28;21003;-75
2022/03/21 00:10:19;;;;;;;24.00;16.80;;;3.40;99.90;;;;;;4947733;28;20043;-75
2022/03/21 00:12:45;;;;;;;23.97;16.53;;;3.30;99.90;;;;;;4948152;28;20540;-75
2022/03/21 00:15:10;;;;;;;25.77;16.90;;;3.40;99.90;;;;;;4955853;28;20051;-73
2022/03/21 00:17:40;;;;;;;16.60;14.13;;;3.30;99.90;;;;;;4951610;28;20123;-75
2022/03/21 00:20:10;;;;;;;15.10;13.50;;;3.30;99.90;;;;;;4947389;28;20089;-75
2022/03/21 00:22:37;;;;;;;15.57;13.93;;;3.30;99.90;;;;;;4946648;28;20083;-75
2022/03/21 00:25:05;;;;;;;17.93;13.70;;;3.30;99.90;;;;;;4947594;28;20047;-75
2022/03/21 00:27:31;;;;;;;16.43;14.57;;;3.30;99.90;;;;;;4962526;28;20047;-75
2022/03/21 00:29:57;;;;;;;21.67;14.00;;;3.30;99.90;;;;;;4962565;28;20047;-75
2022/03/21 00:32:22;;;;;;;17.10;15.60;;;3.20;99.90;;;;;;4956220;28;20038;-75
2022/03/21 00:34:48;;;;;;;14.70;13.27;;;3.20;99.90;;;;;;4965909;28;20043;-75
2022/03/21 00:37:14;;;;;;;15.50;14.17;;;3.20;99.90;;;;;;4965464;28;20039;-75
2022/03/21 00:39:40;;;;;;;15.30;14.17;;;3.20;99.90;;;;;;4966733;28;20038;-75
2022/03/21 00:42:05;;;;;;;15.60;13.47;;;3.20;99.90;;;;;;4967126;28;20039;-75
2022/03/21 00:44:31;;;;;;;21.47;13.37;;;3.20;99.90;;;;;;4966084;28;20058;-75
2022/03/21 00:46:56;;;;;;;24.63;15.17;;;3.20;99.90;;;;;;4965155;28;20050;-75
2022/03/21 00:49:22;;;;;;;17.17;15.67;;;3.20;99.90;;;;;;4965829;28;20106;-75
2022/03/21 00:51:48;;;;;;;13.10;11.77;;;3.10;99.90;;;;;;4965436;28;20035;-75
2022/03/21 00:54:13;;;;;;;14.87;13.53;;;3.10;99.90;;;;;;4966155;28;20043;-75
2022/03/21 00:56:39;;;;;;;21.43;16.53;;;3.10;99.90;;;;;;4956826;28;20071;-74
2022/03/21 00:59:05;;;;;;;14.93;13.23;;;3.10;99.90;;;;;;4947433;28;20083;-75
2022/03/21 01:01:30;;;;;;;14.80;11.97;;;3.10;99.90;;;;;;4946598;28;20058;-75
2022/03/21 01:03:56;;;;;;;19.03;17.23;;;3.10;99.90;;;;;;4946144;28;20035;-75
2022/03/21 01:06:22;;;;;;;25.67;17.13;;;3.10;99.90;;;;;;4946433;28;20039;-75
2022/03/21 01:08:48;;;;;;;20.70;17.17;;;3.10;99.90;;;;;;4947252;28;20174;-75
2022/03/21 01:11:13;;;;;;;15.17;13.77;;;3.10;99.90;;;;;;4946525;28;20553;-75
2022/03/21 01:13:41;;;;;;;17.37;15.57;;;3.00;99.90;;;;;;4946691;28;20055;-75
2022/03/21 01:16:10;;;;;;;17.17;15.43;;;3.00;99.90;;;;;;4965110;28;20054;-75
2022/03/21 01:18:36;;;;;;;21.70;15.07;;;3.00;99.90;;;;;;4965682;28;20193;-75
2022/03/21 01:21:02;;;;;;;22.70;17.30;;;3.00;99.90;;;;;;4965938;28;20529;-75
2022/03/21 01:23:28;;;;;;;16.23;14.60;;;3.00;99.90;;;;;;4965777;28;20044;-75
2022/03/21 01:25:53;;;;;;;20.27;14.50;;;3.00;99.90;;;;;;4948916;28;20130;-75
2022/03/21 01:28:19;;;;;;;17.27;15.47;;;2.90;99.90;;;;;;4946398;28;20494;-75
2022/03/21 01:30:45;;;;;;;21.70;17.20;;;2.90;99.90;;;;;;4945022;28;20050;-75
2022/03/21 01:33:10;;;;;;;18.93;16.73;;;2.80;99.90;;;;;;4964089;28;20127;-75
2022/03/21 01:35:36;;;;;;;19.77;17.20;;;2.80;99.90;;;;;;4965324;28;20544;-75
2022/03/21 01:38:01;;;;;;;14.00;12.20;;;2.80;99.90;;;;;;4965690;28;20074;-75
2022/03/21 01:40:27;;;;;;;21.43;14.63;;;2.80;99.90;;;;;;4965449;28;20472;-75
2022/03/21 01:42:53;;;;;;;17.37;15.37;;;2.80;99.90;;;;;;4965203;28;20411;-75
2022/03/21 01:45:19;;;;;;;14.47;12.90;;;2.70;99.90;;;;;;4964771;28;20054;-75
2022/03/21 01:47:46;;;;;;;25.73;16.23;;;2.70;99.90;;;;;;4965495;28;20122;-75
2022/03/21 01:50:14;;;;;;;17.40;15.37;;;2.70;99.90;;;;;;4962201;28;20089;-75
2022/03/21 01:52:42;;;;;;;19.30;13.57;;;2.60;99.90;;;;;;4946108;28;20047;-75
2022/03/21 01:57:53;;;;;;;19.50;17.43;;;2.60;99.90;;;;;;4962819;28;20057;-75
2022/03/21 02:00:19;;;;;;;17.23;14.87;;;2.60;99.90;;;;;;4963827;28;20127;-75
2022/03/21 02:02:44;;;;;;;24.90;17.37;;;2.60;99.90;;;;;;4965250;28;20137;-75
2022/03/21 02:05:10;;;;;;;15.77;14.57;;;2.60;99.90;;;;;;4967853;23;20038;-75
2022/03/21 02:07:36;;;;;;;28.60;18.03;;;2.60;99.90;;;;;;4908307;29;20506;-75
2022/03/21 02:10:04;;;;;;;21.50;15.93;;;2.60;99.90;;;;;;4922124;29;20062;-75
2022/03/21 02:12:30;;;;;;;21.13;18.23;;;2.60;99.90;;;;;;4907699;29;20095;-75
2022/03/21 02:14:56;;;;;;;30.03;17.13;;;2.60;99.90;;;;;;4906744;29;20043;-75
2022/03/21 02:17:23;;;;;;;21.67;16.63;;;2.50;99.90;;;;;;4907688;29;20124;-75
2022/03/21 02:19:48;;;;;;;17.30;15.60;;;2.50;99.90;;;;;;4905701;29;20056;-75
2022/03/21 02:22:45;;;;;;;15.50;13.97;;;2.50;99.90;;;;;;4906029;29;20096;-75
2022/03/21 02:25:22;;;;;;;19.60;15.87;;;2.60;99.90;;;;;;4906383;29;20056;-75
2022/03/21 02:27:50;;;;;;;16.93;13.30;;;2.50;99.90;;;;;;4906711;29;20048;-75
2022/03/21 02:30:17;;;;;;;29.37;21.10;;;2.50;99.90;;;;;;4907222;29;20721;-75
2022/03/21 02:32:43;;;;;;;21.87;17.83;;;2.50;99.90;;;;;;4907352;29;20079;-75
2022/03/21 02:35:10;;;;;;;19.83;15.60;;;2.50;99.90;;;;;;4906847;29;20048;-75
2022/03/21 02:37:36;;;;;;;19.20;15.87;;;2.50;99.90;;;;;;4907633;29;20044;-75
2022/03/21 02:40:02;;;;;;;19.03;16.40;;;2.50;99.90;;;;;;4907266;29;20538;-75
2022/03/21 02:42:28;;;;;;;28.43;19.43;;;2.50;99.90;;;;;;4907048;29;20042;-74
2022/03/21 02:44:53;;;;;;;20.67;17.43;;;2.50;99.90;;;;;;4906911;29;20041;-75
2022/03/21 02:47:19;;;;;;;25.67;15.27;;;2.50;99.90;;;;;;4906863;29;20056;-75
2022/03/21 02:49:45;;;;;;;30.63;20.57;;;2.50;99.90;;;;;;4905797;29;20095;-75
2022/03/21 02:52:14;;;;;;;17.83;16.13;;;2.50;99.90;;;;;;4889262;29;20108;-75
2022/03/21 02:54:39;;;;;;;26.70;16.30;;;2.40;99.90;;;;;;4907033;29;20509;-75
2022/03/21 02:57:05;;;;;;;20.37;15.33;;;2.50;99.90;;;;;;4907099;29;20052;-75
2022/03/21 02:59:31;;;;;;;25.90;16.70;;;2.40;99.90;;;;;;4905717;29;20048;-75
2022/03/21 03:01:56;;;;;;;19.70;17.70;;;2.40;99.90;;;;;;4906867;29;20048;-75
2022/03/21 03:04:26;;;;;;;20.10;16.83;;;2.40;99.90;;;;;;4905632;29;20124;-75
2022/03/21 03:06:52;;;;;;;25.10;18.83;;;2.40;99.90;;;;;;4906526;29;20067;-75
2022/03/21 03:09:19;;;;;;;27.17;18.17;;;2.40;99.90;;;;;;4906842;29;20054;-75
2022/03/21 03:11:44;;;;;;;18.47;16.77;;;2.40;99.90;;;;;;4906047;29;20431;-75
2022/03/21 03:14:11;;;;;;;28.77;19.73;;;2.40;99.90;;;;;;4906399;29;20040;-75
2022/03/21 03:16:36;;;;;;;23.10;18.13;;;2.40;99.90;;;;;;4906685;29;20510;-75
2022/03/21 03:19:03;;;;;;;16.87;14.83;;;2.40;99.90;;;;;;4906048;29;20067;-75
2022/03/21 03:21:38;;;;;;;19.60;17.63;;;2.40;99.90;;;;;;4906210;29;20546;-75
2022/03/21 03:24:05;;;;;;;17.93;13.20;;;2.40;99.90;;;;;;4907016;29;20052;-75
2022/03/21 03:26:31;;;;;;;17.60;15.93;;;2.40;99.90;;;;;;4904862;29;20063;-75
2022/03/21 03:28:56;;;;;;;20.27;17.07;;;2.30;99.90;;;;;;4906557;29;20044;-75
2022/03/21 03:31:22;;;;;;;17.20;15.33;;;2.30;99.90;;;;;;4905850;29;20050;-75
2022/03/21 03:33:48;;;;;;;28.53;17.30;;;2.30;99.90;;;;;;4904754;29;20048;-75
2022/03/21 03:36:17;;;;;;;29.93;17.53;;;2.30;99.90;;;;;;4906168;29;20052;-75
2022/03/21 03:38:44;;;;;;;27.27;17.83;;;2.30;99.90;;;;;;4906660;29;20075;-75
2022/03/21 03:41:10;;;;;;;21.93;18.07;;;2.30;99.90;;;;;;4906216;29;20044;-75
2022/03/21 03:43:37;;;;;;;25.07;17.27;;;2.20;99.90;;;;;;4906917;29;20103;-75
2022/03/21 03:46:03;;;;;;;16.30;13.57;;;2.20;99.90;;;;;;4906066;29;20107;-75
2022/03/21 03:48:29;;;;;;;24.40;18.17;;;2.20;99.90;;;;;;4905360;29;20052;-75
2022/03/21 03:50:55;;;;;;;23.57;17.47;;;2.20;99.90;;;;;;4906241;29;20044;-75
2022/03/21 03:53:21;;;;;;;19.97;17.93;;;2.20;99.90;;;;;;4905008;29;20067;-75
2022/03/21 03:55:46;;;;;;;22.47;19.93;;;2.20;99.90;;;;;;4905756;29;20510;-74
2022/03/21 03:58:13;;;;;;;25.23;17.93;;;2.20;99.90;;;;;;4906041;29;20043;-75
2022/03/21 04:00:38;;;;;;;32.50;16.70;;;2.20;99.90;;;;;;4906494;29;20073;-74
2022/03/21 04:05:49;;;;;;;24.67;16.10;;;2.20;99.90;;;;;;4904502;29;20434;-75
2022/03/21 04:08:15;;;;;;;23.97;21.33;;;2.20;99.90;;;;;;4904795;29;20056;-75
2022/03/21 04:10:41;;;;;;;21.80;15.37;;;2.20;99.90;;;;;;4906531;29;20615;-75
2022/03/21 04:13:07;;;;;;;20.67;18.70;;;2.10;99.90;;;;;;4906046;29;20135;-76
2022/03/21 04:15:33;;;;;;;17.93;16.13;;;2.10;99.90;;;;;;4904647;29;20135;-75
2022/03/21 04:18:03;;;;;;;27.03;19.37;;;2.10;99.90;;;;;;4905549;29;20051;-75
2022/03/21 04:20:31;;;;;;;21.40;15.97;;;2.10;99.90;;;;;;4906156;29;20056;-76
2022/03/21 04:22:57;;;;;;;17.90;16.13;;;2.20;99.90;;;;;;4906123;29;20040;-75
2022/03/21 04:25:22;;;;;;;16.20;14.23;;;2.20;99.90;;;;;;4904243;29;20059;-75
2022/03/21 04:27:48;;;;;;;20.47;18.30;;;2.10;99.90;;;;;;4906180;29;20040;-75
2022/03/21 04:30:14;;;;;;;16.90;15.17;;;2.10;99.90;;;;;;4906073;29;20070;-75
2022/03/21 04:32:39;;;;;;;22.33;19.77;;;2.10;99.90;;;;;;4906031;29;20411;-75
2022/03/21 04:35:06;;;;;;;20.37;15.13;;;2.10;99.90;;;;;;4905411;29;20738;-75
2022/03/21 04:37:32;;;;;;;17.30;15.23;;;2.10;99.90;;;;;;4906929;29;20123;-75
2022/03/21 04:39:58;;;;;;;21.63;17.60;;;2.00;99.90;;;;;;4909328;29;20172;-75
2022/03/21 04:42:24;;;;;;;22.03;15.47;;;2.10;99.90;;;;;;4907763;29;20044;-75
2022/03/21 04:44:50;;;;;;;21.17;17.77;;;2.00;99.90;;;;;;4909371;29;20044;-75
2022/03/21 04:47:17;;;;;;;32.33;22.27;;;2.00;99.90;;;;;;4909128;29;20040;-75
2022/03/21 04:49:44;;;;;;;18.67;16.50;;;2.00;99.90;;;;;;4908233;29;20502;-75
2022/03/21 04:52:09;;;;;;;21.10;17.23;;;2.00;99.90;;;;;;4908600;29;20407;-75
2022/03/21 04:54:35;;;;;;;23.80;19.80;;;2.00;99.90;;;;;;4909619;29;20044;-75
2022/03/21 04:57:00;;;;;;;21.77;18.07;;;2.00;99.90;;;;;;4909116;29;20495;-75
2022/03/21 04:59:26;;;;;;;23.80;17.07;;;2.00;99.90;;;;;;4909001;29;20137;-76
2022/03/21 05:01:52;;;;;;;19.23;16.63;;;2.10;99.90;;;;;;4909008;29;20047;-75
2022/03/21 05:04:19;;;;;;;18.00;16.00;;;2.10;99.90;;;;;;4907794;29;20052;-75
2022/03/21 05:06:46;;;;;;;24.00;18.10;;;2.10;99.90;;;;;;4908648;29;20056;-75
2022/03/21 05:09:11;;;;;;;21.37;14.10;;;2.00;99.90;;;;;;4908907;29;20052;-75
2022/03/21 05:11:37;;;;;;;19.37;16.87;;;2.00;99.90;;;;;;4909312;29;20241;-75
2022/03/21 05:14:02;;;;;;;29.00;20.53;;;2.00;99.90;;;;;;4907012;29;20069;-75
2022/03/21 05:16:28;;;;;;;31.00;17.70;;;2.00;99.90;;;;;;4907397;29;20056;-75
2022/03/21 05:18:54;;;;;;;20.17;16.40;;;2.00;99.90;;;;;;4906602;29;20436;-75
2022/03/21 05:21:19;;;;;;;25.27;19.73;;;2.00;99.90;;;;;;4907307;29;20380;-75
2022/03/21 05:31:58;;;;;;;25.43;20.97;;;1.90;99.90;;;;;;4908629;29;20661;-75
2022/03/21 05:37:08;;;;;;;21.50;15.50;;;1.90;99.90;;;;;;4907424;29;20522;-75
2022/03/21 05:39:34;;;;;;;24.53;17.00;;;1.90;99.90;;;;;;4908304;29;20044;-75
2022/03/21 05:41:59;;;;;;;22.57;19.20;;;1.90;99.90;;;;;;4908536;29;20051;-75
2022/03/21 05:44:25;;;;;;;23.67;20.60;;;1.90;99.90;;;;;;4907753;29;20044;-76
2022/03/21 05:46:51;;;;;;;21.43;18.50;;;1.90;99.90;;;;;;4938572;28;20047;-75
2022/03/21 05:49:17;;;;;;;23.13;20.10;;;1.90;99.90;;;;;;4907029;29;20051;-75
2022/03/21 05:51:42;;;;;;;21.30;17.60;;;2.00;99.90;;;;;;4908010;29;20048;-75
2022/03/21 05:54:10;;;;;;;28.40;20.03;;;1.90;99.90;;;;;;4907599;29;20109;-75
2022/03/21 05:56:37;;;;;;;29.03;20.83;;;2.00;99.90;;;;;;4906954;29;20056;-74
2022/03/21 06:01:49;;;;;;;25.53;16.33;;;1.90;99.90;;;;;;4894419;29;20554;-75
2022/03/21 06:04:15;;;;;;;20.70;17.47;;;1.90;99.90;;;;;;4887947;29;20087;-75
2022/03/21 06:06:41;;;;;;;23.57;14.47;;;1.90;99.90;;;;;;4895892;29;20123;-75
2022/03/21 06:09:07;;;;;;;20.10;16.77;;;1.90;99.90;;;;;;4907548;29;20063;-75
2022/03/21 06:11:34;;;;;;;20.93;16.20;;;1.90;99.90;;;;;;4907819;29;20085;-75
2022/03/21 06:14:00;;;;;;;28.50;19.97;;;1.90;99.90;;;;;;4906458;29;20635;-75
2022/03/21 06:16:26;;;;;;;22.43;16.73;;;2.00;99.90;;;;;;4906955;29;20124;-75
2022/03/21 06:18:51;;;;;;;19.70;16.00;;;2.00;99.90;;;;;;4906918;29;20598;-74
2022/03/21 06:21:17;;;;;;;18.90;13.90;;;2.00;99.90;;;;;;4905213;29;20044;-74
2022/03/21 06:23:42;;;;;;;28.40;16.40;;;2.00;99.90;;;;;;4897177;29;20036;-76
2022/03/21 06:26:08;;;;;;;17.10;15.33;;;2.00;99.90;;;;;;4898123;29;20520;-76
2022/03/21 06:28:35;;;;;;;19.90;17.30;;;2.00;99.90;;;;;;4907460;29;20407;-75
2022/03/21 06:31:01;;;;;;;19.13;15.83;;;2.00;99.90;;;;;;4906223;29;20047;-74
2022/03/21 06:33:29;;;;;;;26.40;18.23;;;2.00;99.90;;;;;;4906516;29;20067;-74
2022/03/21 06:35:56;;;;;;;22.13;15.67;;;2.00;99.90;;;;;;4900177;29;20545;-77
2022/03/21 06:38:22;;;;;;;21.60;19.33;;;2.10;99.90;;;;;;4907671;29;20059;-75
2022/03/21 06:40:48;;;;;;;24.97;18.33;;;2.10;99.90;;;;;;4907160;29;20047;-75
2022/03/21 06:43:15;;;;;;;19.50;17.77;;;2.10;99.90;;;;;;4902985;29;20839;-76
2022/03/21 06:45:42;;;;;;;19.20;17.47;;;2.20;99.90;;;;;;4900903;29;20460;-76
2022/03/21 06:48:07;;;;;;;17.93;16.33;;;2.20;99.90;;;;;;4905569;29;20084;-75
2022/03/21 06:50:33;;;;;;;20.13;17.87;;;2.20;99.90;;;;;;4906913;29;20431;-75
2022/03/21 06:52:59;;;;;;;16.70;14.70;;;2.20;99.90;;;;;;4906729;29;20134;-79
2022/03/21 06:55:25;;;;;;;21.20;17.87;;;2.30;99.90;;;;;;4905228;29;20196;-79
2022/03/21 06:57:51;;;;;;;27.83;19.90;;;2.20;99.90;;;;;;4889009;29;20083;-78
2022/03/21 07:00:17;;;;;;;20.30;18.20;;;2.30;99.90;;;;;;4896517;29;20051;-81
2022/03/21 07:02:44;;;;;;;17.83;15.03;;;2.30;99.90;;;;;;4905823;29;20047;-73
2022/03/21 07:05:10;;;;;;;25.17;17.30;;;2.30;99.90;;;;;;4902749;29;20068;-72
2022/03/21 07:07:35;;;;;;;25.97;16.27;;;2.30;99.90;;;;;;4915147;29;20063;-73
2022/03/21 07:10:02;;;;;;;23.50;19.53;;;2.40;99.90;;;;;;4906023;29;20040;-73
2022/03/21 07:12:28;;;;;;;24.67;17.50;;;2.40;99.90;;;;;;4901903;29;20407;-78
2022/03/21 07:14:53;;;;;;;19.30;17.53;;;2.40;99.90;;;;;;4903107;29;20050;-80
2022/03/21 07:17:23;;;;;;;24.40;17.90;;;2.40;99.90;;;;;;4899920;29;20056;-79
2022/03/21 07:19:49;;;;;;;19.37;16.70;;;2.50;99.90;;;;;;4908607;29;20071;-79
2022/03/21 07:22:14;;;;;;;19.60;17.07;;;2.50;99.90;;;;;;4906395;29;20483;-81
2022/03/21 07:24:40;;;;;;;26.97;16.27;;;2.50;99.90;;;;;;4906090;29;20415;-78
2022/03/21 07:27:06;;;;;;;14.77;13.20;;;2.60;99.90;;;;;;4906510;29;20079;-77
2022/03/21 07:29:32;;;;;;;20.47;18.00;;;2.60;99.90;;;;;;4908484;29;20115;-74
2022/03/21 07:31:57;;;;;;;22.10;16.73;;;2.60;99.90;;;;;;4905425;29;20196;-78
2022/03/21 07:34:24;;;;;;;22.77;15.83;;;2.70;99.90;;;;;;4905356;29;20048;-77
2022/03/21 07:36:50;;;;;;;23.43;20.67;;;2.70;99.90;;;;;;4905725;29;20066;-72
2022/03/21 07:39:16;;;;;;;20.30;18.33;;;2.70;99.90;;;;;;4905320;29;20051;-73
2022/03/21 07:41:42;;;;;;;18.50;16.70;;;2.80;99.90;;;;;;4905276;29;20060;-72
2022/03/21 07:44:08;;;;;;;21.37;17.40;;;2.80;99.90;;;;;;4906327;29;20513;-71
2022/03/21 07:49:18;;;;;;;20.03;15.23;;;2.80;99.90;;;;;;4897677;29;20171;-71
2022/03/21 07:51:43;;;;;;;22.70;20.20;;;2.90;99.90;;;;;;4906166;29;20123;-71
2022/03/21 07:54:10;;;;;;;17.93;14.90;;;2.90;99.90;;;;;;4903710;29;20051;-72
2022/03/21 07:56:36;;;;;;;18.57;16.67;;;3.00;99.90;;;;;;4904333;29;20115;-72
2022/03/21 07:59:03;;;;;;;17.47;14.73;;;3.00;99.90;;;;;;4905406;29;20264;-72
2022/03/21 08:01:29;;;;;;;20.30;14.53;;;3.10;99.90;;;;;;4905034;29;20071;-72
2022/03/21 08:03:57;;;;;;;18.10;15.40;;;3.10;99.90;;;;;;4904909;29;20131;-71
2022/03/21 08:06:23;;;;;;;17.13;15.27;;;3.10;99.90;;;;;;4904482;29;20056;-71
2022/03/21 08:08:49;;;;;;;22.60;16.43;;;3.20;99.90;;;;;;4905579;29;20431;-72
2022/03/21 08:11:15;;;;;;;21.80;15.70;;;3.30;99.90;;;;;;4903992;29;20055;-71
2022/03/21 08:13:42;;;;;;;17.13;15.70;;;3.30;99.90;;;;;;4908148;29;20530;-71
2022/03/21 08:16:07;;;;;;;17.80;15.60;;;3.30;99.90;;;;;;4907943;29;20452;-71
2022/03/21 08:18:33;;;;;;;15.80;14.43;;;3.40;99.90;;;;;;4908291;29;20040;-72
2022/03/21 08:20:58;;;;;;;24.30;17.53;;;3.50;99.90;;;;;;4907444;29;20481;-71
2022/03/21 08:23:24;;;;;;;20.93;15.33;;;3.50;99.90;;;;;;4908470;29;20044;-72
2022/03/21 08:25:50;;;;;;;16.93;15.37;;;3.60;99.90;;;;;;4908548;29;20068;-72
2022/03/21 08:28:15;;;;;;;15.37;14.00;;;3.60;99.90;;;;;;4908223;29;20071;-74
2022/03/21 08:30:41;;;;;;;15.57;14.00;;;3.70;99.90;;;;;;4908596;29;20029;-74
2022/03/21 08:33:09;;;;;;;16.67;15.07;;;3.70;99.90;;;;;;4907899;29;20322;-74
2022/03/21 08:35:36;;;;;;;22.63;15.07;;;3.80;99.90;;;;;;4907431;29;20040;-74
2022/03/21 08:38:03;;;;;;;18.80;13.67;;;3.90;99.90;;;;;;4908359;29;20052;-74
2022/03/21 08:40:28;;;;;;;17.47;14.77;;;3.90;99.90;;;;;;4908244;29;20139;-72
2022/03/21 08:42:56;;;;;;;15.60;13.67;;;4.00;99.90;;;;;;4908714;29;20115;-72
2022/03/21 08:45:22;;;;;;;14.83;12.50;;;4.10;99.90;;;;;;4902653;29;20075;-72
2022/03/21 08:47:50;;;;;;;16.90;13.70;;;4.20;99.90;;;;;;4906335;29;20140;-71
2022/03/21 08:50:16;;;;;;;17.90;16.03;;;4.30;99.90;;;;;;4907902;29;20044;-72
2022/03/21 08:52:41;;;;;;;10.40;9.47;;;4.50;99.90;;;;;;4907874;29;20079;-72
2022/03/21 08:55:08;;;;;;;14.63;12.93;;;4.50;99.90;;;;;;4908188;29;20378;-71
2022/03/21 08:57:34;;;;;;;14.03;11.40;;;4.60;99.90;;;;;;4908628;29;20051;-72
2022/03/21 09:00:00;;;;;;;8.40;7.77;;;4.70;99.90;;;;;;4907947;29;20028;-72
2022/03/21 09:02:26;;;;;;;14.03;12.60;;;4.90;99.90;;;;;;4906898;29;20152;-71
2022/03/21 09:04:52;;;;;;;10.57;9.50;;;5.00;99.90;;;;;;4907804;29;20649;-71
2022/03/21 09:07:18;;;;;;;10.77;9.93;;;5.10;99.90;;;;;;4907398;29;20593;-71
2022/03/21 09:09:44;;;;;;;16.97;12.80;;;5.10;99.90;;;;;;4907952;29;20084;-71
2022/03/21 09:12:11;;;;;;;15.47;11.30;;;5.20;99.90;;;;;;4906014;29;20551;-72
2022/03/21 09:14:37;;;;;;;15.73;13.67;;;5.30;99.90;;;;;;4906969;29;20499;-72
2022/03/21 09:17:06;;;;;;;11.40;10.37;;;5.30;99.90;;;;;;4905987;29;20635;-72
2022/03/21 09:19:31;;;;;;;11.23;10.23;;;5.30;99.90;;;;;;4906817;29;20044;-71
2022/03/21 09:21:58;;;;;;;12.67;9.17;;;5.40;99.90;;;;;;4908019;29;20119;-71
2022/03/21 09:24:24;;;;;;;13.97;11.80;;;5.50;99.90;;;;;;4907089;29;20035;-71
2022/03/21 09:26:50;;;;;;;11.97;11.00;;;5.60;99.90;;;;;;4907563;29;20044;-72
2022/03/21 09:29:17;;;;;;;13.13;11.80;;;5.60;99.90;;;;;;4907860;29;20104;-72
2022/03/21 09:31:43;;;;;;;21.77;12.20;;;5.60;99.90;;;;;;4907009;29;20040;-72
2022/03/21 09:34:10;;;;;;;11.37;10.43;;;5.70;99.90;;;;;;4887940;29;20052;-72
2022/03/21 09:36:37;;;;;;;11.53;10.23;;;5.70;99.90;;;;;;4889251;29;20322;-71
2022/03/21 09:39:04;;;;;;;11.15;9.65;;;5.80;99.90;;;;;;4895930;29;20399;-71
2022/03/21 09:41:30;;;;;;;13.40;11.23;;;5.90;99.90;;;;;;4906892;29;20044;-72
2022/03/21 09:44:03;;;;;;;12.15;10.88;;;6.00;99.90;;;;;;4907202;29;20098;-72
2022/03/21 09:46:29;;;;;;;13.40;11.38;;;6.10;99.90;;;;;;4886943;29;20448;-71
2022/03/21 09:48:57;;;;;;;13.00;11.88;;;6.10;99.90;;;;;;4906030;29;20319;-72
2022/03/21 09:51:24;;;;;;;12.13;11.10;;;6.30;99.90;;;;;;4906944;29;20056;-72
2022/03/21 09:53:50;;;;;;;17.13;11.95;;;6.20;99.90;;;;;;4907047;29;20423;-72
2022/03/21 09:56:17;;;;;;;14.60;13.20;;;6.30;99.90;;;;;;4905507;29;20052;-72
2022/03/21 09:58:44;;;;;;;12.43;11.43;;;6.40;99.90;;;;;;4906920;29;20570;-72
2022/03/21 10:01:13;;;;;;;17.00;10.80;;;6.50;99.90;;;;;;4905281;29;20051;-72
2022/03/21 10:03:39;;;;;;;13.80;10.27;;;6.50;99.90;;;;;;4906462;29;20127;-72
2022/03/21 10:06:40;;;;;;;13.38;11.75;;;6.70;99.90;;;;;;4905581;29;20135;-72
2022/03/21 10:09:10;;;;;;;17.80;11.10;;;6.70;99.90;;;;;;4848638;29;20189;-72
2022/03/21 10:11:36;;;;;;;18.50;14.95;;;6.70;99.90;;;;;;4880951;29;20527;-72
2022/03/21 10:14:20;;;;;;;16.98;12.15;;;6.80;99.90;;;;;;4888039;29;20047;-72
2022/03/21 10:17:20;;;;;;;12.55;9.88;;;6.80;99.90;;;;;;4904969;29;20095;-72
2022/03/21 10:19:49;;;;;;;14.25;11.07;;;6.90;99.90;;;;;;4899251;29;20052;-72
2022/03/21 10:22:20;;;;;;;18.35;13.80;;;7.00;99.90;;;;;;4906295;29;20063;-72
2022/03/21 10:24:51;;;;;;;17.55;12.75;;;7.00;99.90;;;;;;4905142;29;20048;-72
2022/03/21 10:27:39;;;;;;;13.48;12.07;;;7.10;99.90;;;;;;4904766;29;20052;-72
2022/03/21 10:30:23;;;;;;;23.90;15.05;;;7.20;99.90;;;;;;4906674;29;20073;-72
2022/03/21 10:32:55;;;;;;;15.13;12.32;;;7.20;99.90;;;;;;4905533;29;20491;-72
2022/03/21 10:35:24;;;;;;;21.60;14.40;;;7.20;99.90;;;;;;4905280;29;20055;-72
2022/03/21 10:38:00;;;;;;;16.42;13.75;;;7.30;99.90;;;;;;4906041;29;20532;-72
2022/03/21 10:40:25;;;;;;;17.67;12.30;;;7.40;99.90;;;;;;4904219;29;20463;-72
2022/03/21 10:42:55;;;;;;;21.05;16.25;;;7.40;99.90;;;;;;4905927;29;20048;-72
2022/03/21 10:45:22;;;;;;;20.10;13.68;;;7.50;99.90;;;;;;4895437;29;20036;-72
2022/03/21 10:47:53;;;;;;;17.23;11.10;;;7.60;99.90;;;;;;4905388;29;20139;-72
2022/03/21 10:50:33;;;;;;;15.10;8.15;;;7.60;99.90;;;;;;4905932;29;20055;-72
2022/03/21 10:53:19;;;;;;;13.65;10.45;;;7.70;99.90;;;;;;4906360;29;20355;-72
2022/03/21 10:55:47;;;;;;;13.50;10.20;;;7.80;99.90;;;;;;4905681;29;20050;-73
2022/03/21 10:58:16;;;;;;;10.65;8.98;;;7.90;99.90;;;;;;4905881;29;20139;-72
2022/03/21 11:00:43;;;;;;;10.43;8.70;;;8.00;99.90;;;;;;4904456;29;20071;-72
2022/03/21 11:03:17;;;;;;;14.43;9.18;;;8.00;99.90;;;;;;4905328;29;20131;-72
2022/03/21 11:05:45;;;;;;;16.08;10.43;;;7.90;99.90;;;;;;4905387;29;20086;-73
2022/03/21 11:08:13;;;;;;;21.75;9.10;;;7.90;99.90;;;;;;4905663;29;20044;-72
2022/03/21 11:10:40;;;;;;;10.77;8.05;;;7.90;99.90;;;;;;4906166;29;20419;-72
2022/03/21 11:13:07;;;;;;;12.63;9.52;;;8.00;99.90;;;;;;4906614;29;20124;-72
2022/03/21 11:15:35;;;;;;;13.38;8.25;;;8.00;99.90;;;;;;4905464;29;20048;-73
2022/03/21 11:18:01;;;;;;;9.00;7.93;;;8.00;99.90;;;;;;4904869;29;20221;-72
2022/03/21 11:20:30;;;;;;;15.18;7.80;;;8.10;99.90;;;;;;4904086;29;20043;-72
2022/03/21 11:22:57;;;;;;;21.83;6.88;;;8.10;99.90;;;;;;4904532;29;20056;-72
2022/03/21 11:25:31;;;;;;;8.25;6.75;;;8.10;99.90;;;;;;4905628;29;20072;-72
2022/03/21 11:28:31;;;;;;;10.77;7.53;;;8.10;99.90;;;;;;4905883;29;20055;-72
2022/03/21 11:31:00;;;;;;;9.80;6.43;;;8.10;99.90;;;;;;4904249;29;20074;-72
2022/03/21 11:34:02;;;;;;;11.32;7.57;;;8.30;99.90;;;;;;4904328;29;20032;-72
2022/03/21 11:36:31;;;;;;;12.57;6.88;;;8.30;99.90;;;;;;4890840;29;20557;-72
2022/03/21 11:39:02;;;;;;;9.02;6.78;;;8.40;99.90;;;;;;4905333;29;20135;-72
2022/03/21 11:41:31;;;;;;;11.57;7.30;;;8.40;99.90;;;;;;4905629;29;20032;-73
2022/03/21 11:44:06;;;;;;;7.60;6.90;;;8.40;99.90;;;;;;4905389;29;20044;-73
2022/03/21 11:46:37;;;;;;;5.63;4.82;;;8.40;99.90;;;;;;4897710;29;20137;-72
2022/03/21 11:49:25;;;;;;;11.02;6.65;;;8.40;99.90;;;;;;4908559;29;20463;-72
2022/03/21 11:51:56;;;;;;;8.52;5.90;;;8.60;99.90;;;;;;4888929;29;20512;-73
2022/03/21 11:54:34;;;;;;;8.35;5.95;;;8.60;99.90;;;;;;4887768;29;20459;-73
2022/03/21 11:57:03;;;;;;;5.68;4.75;;;8.60;99.90;;;;;;4909174;29;20044;-73
2022/03/21 11:59:32;;;;;;;9.30;5.63;;;8.60;99.90;;;;;;4908103;29;20059;-72
2022/03/21 12:01:59;;;;;;;6.85;6.18;;;8.50;99.90;;;;;;4907767;29;20048;-73
2022/03/21 12:04:24;;;;;;;6.20;5.35;;;8.60;99.90;;;;;;4908349;29;20130;-72
2022/03/21 12:06:51;;;;;;;6.43;5.82;;;8.70;99.90;;;;;;4908675;29;20076;-72
2022/03/21 12:09:16;;;;;;;8.27;5.40;;;8.80;99.90;;;;;;4908804;29;20055;-72
2022/03/21 12:11:43;;;;;;;9.80;6.15;;;8.80;99.90;;;;;;4908539;29;20052;-73
2022/03/21 12:14:40;;;;;;;3.90;3.53;;;8.80;99.90;;;;;;4906888;29;20304;-72
2022/03/21 12:17:12;;;;;;;5.80;5.20;;;8.80;99.90;;;;;;4908214;29;20101;-73
2022/03/21 12:19:58;;;;;;;10.63;5.32;;;8.70;99.90;;;;;;4908031;29;20459;-72
2022/03/21 12:22:29;;;;;;;6.22;4.60;;;8.80;99.90;;;;;;4908095;29;20200;-72
2022/03/21 12:25:00;;;;;;;9.30;6.05;;;8.90;99.90;;;;;;4906962;29;20118;-73
2022/03/21 12:27:39;;;;;;;6.40;4.43;;;9.00;99.90;;;;;;4906330;29;20562;-72
2022/03/21 12:30:31;;;;;;;6.00;4.00;;;9.10;99.90;;;;;;4908806;29;20040;-72
2022/03/21 12:33:06;;;;;;;8.52;7.60;;;9.10;99.90;;;;;;4906381;29;20067;-73
2022/03/21 12:35:31;;;;;;;9.20;5.90;;;9.10;99.90;;;;;;4907952;29;20714;-73
2022/03/21 12:38:07;;;;;;;10.27;5.18;;;9.00;99.90;;;;;;4907206;29;20108;-72
2022/03/21 12:40:35;;;;;;;8.25;5.28;;;9.00;99.90;;;;;;4906450;29;20345;-72
2022/03/21 12:43:02;;;;;;;6.45;5.50;;;9.10;99.90;;;;;;4907782;29;20080;-72
2022/03/21 12:45:29;;;;;;;6.22;5.43;;;9.20;99.90;;;;;;4896698;29;20049;-73
2022/03/21 12:48:04;;;;;;;7.13;5.28;;;9.20;99.90;;;;;;4888196;29;20040;-73
2022/03/21 12:50:31;;;;;;;7.85;5.90;;;9.20;99.90;;;;;;4888627;29;20116;-73
2022/03/21 12:53:01;;;;;;;11.80;6.10;;;9.20;99.90;;;;;;4889040;29;20108;-73
2022/03/21 12:55:27;;;;;;;6.35;4.95;;;9.30;99.90;;;;;;4888889;29;20040;-72
2022/03/21 12:57:58;;;;;;;9.75;6.45;;;9.30;99.90;;;;;;4902524;29;20077;-72
2022/03/21 13:00:31;;;;;;;9.52;5.10;;;9.40;99.90;;;;;;4907675;29;20088;-72
2022/03/21 13:02:56;;;;;;;;;;;9.40;99.90;;;;;;4906677;29;20040;-72
2022/03/21 13:10:56;;;;;;;10.85;6.00;;;9.40;99.90;;;;;;4907812;29;20103;-73